createdAt,value
2023-03-26T00:04:08.025Z,56.66
2023-03-26T00:06:39.415Z,56.68
2023-03-26T00:09:08.393Z,57.17
2023-03-26T00:11:35.918Z,56.76
2023-03-26T00:14:05.625Z,57.14
2023-03-26T00:16:33.781Z,57.31
2023-03-26T00:19:02.082Z,57.26
2023-03-26T00:21:30.352Z,57.06
2023-03-26T00:23:59.767Z,57.49
2023-03-26T00:26:27.296Z,58.02
2023-03-26T00:28:54.692Z,57.61
2023-03-26T00:31:24.074Z,58.14
2023-03-26T00:33:54.359Z,57.62
2023-03-26T00:36:22.637Z,57.43
2023-03-26T00:38:49.783Z,57.87
2023-03-26T00:41:22.715Z,57.75
2023-03-26T00:43:51.532Z,58.42
2023-03-26T00:46:19.044Z,58.48
2023-03-26T00:48:47.678Z,58.16
2023-03-26T00:51:17.465Z,58.79
2023-03-26T00:53:45.866Z,58.74
2023-03-26T00:56:14.104Z,58.81
2023-03-26T00:58:41.781Z,58.88
2023-03-26T01:01:13.922Z,58.70
2023-03-26T01:03:53.204Z,58.72
2023-03-26T01:06:28.156Z,58.99
2023-03-26T01:09:00.308Z,59.49
2023-03-26T01:11:32.057Z,58.79
2023-03-26T01:14:01.507Z,59.42
2023-03-26T01:16:34.200Z,59.90
2023-03-26T01:19:01.192Z,59.51
2023-03-26T01:21:30.498Z,58.95
2023-03-26T01:23:59.741Z,59.59
2023-03-26T01:26:54.064Z,59.29
2023-03-26T01:29:29.860Z,59.21
2023-03-26T01:32:03.698Z,59.08
2023-03-26T01:34:49.706Z,59.20
2023-03-26T01:37:24.876Z,59.51
2023-03-26T01:39:57.218Z,59.67
2023-03-26T01:42:33.975Z,60.05
2023-03-26T01:45:07.293Z,59.61
2023-03-26T01:47:36.551Z,59.54
2023-03-26T01:50:03.603Z,60.25
2023-03-26T01:52:31.659Z,60.01
2023-03-26T01:55:00.441Z,59.86
2023-03-26T01:57:33.853Z,60.01
2023-03-26T02:00:16.437Z,60.07
2023-03-26T02:03:05.910Z,60.24
2023-03-26T02:05:38.964Z,60.64
2023-03-26T02:08:16.620Z,59.80
2023-03-26T02:10:47.467Z,60.65
2023-03-26T02:13:19.066Z,60.16
2023-03-26T02:15:55.790Z,60.42
2023-03-26T02:18:24.281Z,60.31
2023-03-26T02:20:53.089Z,60.23
2023-03-26T02:23:20.459Z,60.10
2023-03-26T02:25:48.921Z,60.67
2023-03-26T02:28:17.007Z,60.48
2023-03-26T02:30:45.942Z,60.38
2023-03-26T02:33:15.376Z,60.50
2023-03-26T02:35:45.870Z,60.42
2023-03-26T02:38:14.543Z,60.58
2023-03-26T02:40:41.756Z,60.48
2023-03-26T02:43:10.533Z,60.25
2023-03-26T02:45:37.696Z,60.83
2023-03-26T02:48:05.490Z,60.71
2023-03-26T02:50:36.819Z,60.90
2023-03-26T02:53:04.075Z,60.72
2023-03-26T02:55:31.247Z,61.13
2023-03-26T02:57:58.443Z,60.31
2023-03-26T03:00:27.133Z,60.65
2023-03-26T03:02:57.884Z,61.20
2023-03-26T03:05:28.576Z,60.73
2023-03-26T03:07:58.076Z,60.68
2023-03-26T03:10:25.599Z,60.67
2023-03-26T03:12:53.635Z,60.54
2023-03-26T03:15:20.496Z,61.06
2023-03-26T03:17:49.191Z,60.96
2023-03-26T03:20:16.907Z,61.20
2023-03-26T03:22:44.583Z,61.18
2023-03-26T03:25:17.525Z,61.43
2023-03-26T03:27:44.913Z,61.87
2023-03-26T03:30:13.951Z,61.57
2023-03-26T03:32:41.802Z,61.44
2023-03-26T03:35:10.822Z,61.44
2023-03-26T03:37:37.884Z,61.50
2023-03-26T03:40:07.710Z,61.38
2023-03-26T03:42:35.380Z,61.11
2023-03-26T03:45:02.422Z,61.23
2023-03-26T03:47:29.859Z,61.53
2023-03-26T03:49:57.058Z,62.07
2023-03-26T03:52:25.641Z,61.76
2023-03-26T03:54:52.656Z,61.93
2023-03-26T03:57:21.969Z,61.42
2023-03-26T03:59:49.202Z,61.06
2023-03-26T04:02:34.737Z,61.84
2023-03-26T04:05:02.581Z,61.32
2023-03-26T04:07:32.321Z,61.51
2023-03-26T04:10:00.185Z,62.01
2023-03-26T04:12:28.170Z,61.67
2023-03-26T04:14:55.695Z,61.70
2023-03-26T04:17:23.159Z,61.63
2023-03-26T04:19:52.901Z,61.58
2023-03-26T04:22:21.554Z,61.52
2023-03-26T04:24:50.241Z,62.12
2023-03-26T04:27:31.573Z,61.79
2023-03-26T04:30:01.135Z,61.69
2023-03-26T04:32:30.870Z,61.97
2023-03-26T04:35:03.167Z,61.80
2023-03-26T04:37:39.607Z,61.57
2023-03-26T04:40:13.729Z,62.48
2023-03-26T04:42:47.118Z,63.35
2023-03-26T04:45:15.685Z,63.11
2023-03-26T04:47:43.135Z,64.75
2023-03-26T04:50:11.653Z,64.40
2023-03-26T04:52:39.262Z,63.92
2023-03-26T04:55:19.563Z,63.30
2023-03-26T04:57:53.765Z,62.70
2023-03-26T05:00:21.431Z,62.38
2023-03-26T05:02:54.902Z,62.58
2023-03-26T05:05:24.193Z,60.17
2023-03-26T05:07:51.791Z,54.82
2023-03-26T05:10:21.820Z,49.65
2023-03-26T05:12:49.497Z,46.43
2023-03-26T05:15:16.704Z,44.93
2023-03-26T05:17:44.073Z,42.99
2023-03-26T05:20:23.291Z,39.49
2023-03-26T05:22:51.359Z,37.86
2023-03-26T05:25:20.440Z,40.15
2023-03-26T05:27:48.049Z,40.99
2023-03-26T05:30:17.019Z,41.37
2023-03-26T05:32:45.049Z,41.62
2023-03-26T05:35:12.999Z,42.33
2023-03-26T05:37:40.191Z,42.72
2023-03-26T05:40:16.660Z,42.88
2023-03-26T05:42:46.089Z,42.97
2023-03-26T05:45:13.908Z,43.24
2023-03-26T05:47:41.466Z,43.62
2023-03-26T05:50:09.991Z,43.96
2023-03-26T05:52:37.942Z,43.74
2023-03-26T05:55:05.656Z,44.19
2023-03-26T05:57:33.740Z,44.13
2023-03-26T06:00:03.193Z,44.16
2023-03-26T06:02:30.780Z,43.72
2023-03-26T06:04:57.858Z,43.29
2023-03-26T06:07:27.073Z,42.90
2023-03-26T06:09:56.482Z,42.56
2023-03-26T06:12:26.736Z,42.83
2023-03-26T06:14:53.692Z,43.38
2023-03-26T06:17:22.431Z,44.55
2023-03-26T06:19:49.393Z,45.06
2023-03-26T06:22:16.737Z,45.60
2023-03-26T06:24:43.765Z,45.31
2023-03-26T06:27:11.020Z,45.48
2023-03-26T06:29:37.980Z,45.72
2023-03-26T06:32:18.480Z,45.66
2023-03-26T06:34:48.366Z,45.76
2023-03-26T06:37:15.731Z,45.77
2023-03-26T06:39:42.925Z,46.06
2023-03-26T06:42:10.407Z,46.15
2023-03-26T06:44:37.723Z,46.61
2023-03-26T06:47:05.415Z,45.88
2023-03-26T06:49:32.439Z,45.58
2023-03-26T06:52:02.888Z,45.93
2023-03-26T06:54:30.368Z,46.31
2023-03-26T06:57:00.135Z,46.25
2023-03-26T06:59:27.376Z,45.58
2023-03-26T07:01:54.624Z,45.66
2023-03-26T07:04:21.614Z,44.63
2023-03-26T07:06:49.748Z,45.12
2023-03-26T07:09:18.345Z,45.97
2023-03-26T07:11:45.639Z,45.84
2023-03-26T07:14:17.827Z,45.11
2023-03-26T07:17:00.396Z,45.11
2023-03-26T07:22:22.448Z,44.98
2023-03-26T07:24:51.774Z,45.55
2023-03-26T07:27:37.716Z,45.22
2023-03-26T07:30:09.116Z,45.67
2023-03-26T07:32:45.317Z,45.36
2023-03-26T07:35:20.850Z,46.06
2023-03-26T07:37:59.659Z,45.32
2023-03-26T07:40:53.149Z,45.65
2023-03-26T07:43:33.777Z,45.00
2023-03-26T07:46:01.290Z,45.58
2023-03-26T07:48:40.798Z,44.91
2023-03-26T07:51:09.113Z,45.17
2023-03-26T07:53:37.426Z,44.67
2023-03-26T07:56:14.373Z,44.49
2023-03-26T07:58:56.532Z,44.14
2023-03-26T08:01:36.387Z,43.18
2023-03-26T08:04:24.653Z,45.28
2023-03-26T08:06:58.608Z,46.28
2023-03-26T08:09:35.201Z,44.70
2023-03-26T08:12:10.596Z,43.25
2023-03-26T08:14:51.274Z,42.54
2023-03-26T08:17:31.027Z,41.74
2023-03-26T08:20:08.048Z,41.92
2023-03-26T08:22:38.884Z,41.67
2023-03-26T08:25:21.331Z,40.24
2023-03-26T08:28:04.301Z,40.42
2023-03-26T08:30:32.529Z,40.87
2023-03-26T08:33:04.676Z,42.18
2023-03-26T08:35:35.242Z,40.47
2023-03-26T08:38:02.360Z,40.16
2023-03-26T08:40:57.508Z,40.18
2023-03-26T08:44:02.682Z,39.88
2023-03-26T08:47:06.332Z,39.40
2023-03-26T08:50:09.277Z,38.08
2023-03-26T08:53:27.929Z,38.42
2023-03-26T08:56:01.443Z,38.71
2023-03-26T08:58:58.853Z,37.81
2023-03-26T09:02:18.595Z,37.28
2023-03-26T09:05:20.016Z,37.36
2023-03-26T09:08:37.465Z,37.54
2023-03-26T09:12:01.425Z,37.20
2023-03-26T09:14:57.673Z,36.90
2023-03-26T09:17:53.718Z,36.35
2023-03-26T09:20:51.609Z,35.92
2023-03-26T09:23:41.281Z,35.69
2023-03-26T09:26:23.884Z,35.39
2023-03-26T09:29:14.167Z,35.39
2023-03-26T09:32:30.997Z,34.57
2023-03-26T09:35:13.554Z,34.89
2023-03-26T09:37:57.453Z,34.96
2023-03-26T09:40:37.043Z,33.36
2023-03-26T09:43:29.234Z,33.24
2023-03-26T09:46:10.578Z,32.71
2023-03-26T09:49:12.834Z,34.10
2023-03-26T09:51:56.358Z,33.91
2023-03-26T09:54:54.951Z,33.39
2023-03-26T09:57:41.509Z,33.54
2023-03-26T10:00:21.648Z,33.70
2023-03-26T10:03:21.862Z,33.26
2023-03-26T10:06:04.431Z,33.20
2023-03-26T10:08:48.068Z,32.49
2023-03-26T10:11:23.963Z,32.62
2023-03-26T10:13:59.183Z,32.00
2023-03-26T10:16:35.492Z,30.91
2023-03-26T10:19:37.796Z,31.00
2023-03-26T10:22:21.293Z,30.99
2023-03-26T10:25:22.288Z,30.86
2023-03-26T10:27:58.755Z,30.04
2023-03-26T10:30:52.705Z,30.18
2023-03-26T10:33:30.599Z,30.46
2023-03-26T10:36:15.045Z,30.40
2023-03-26T10:42:24.536Z,30.02
2023-03-26T10:45:14.149Z,30.84
2023-03-26T10:48:02.226Z,30.51
2023-03-26T10:50:52.458Z,29.94
2023-03-26T10:53:31.023Z,29.85
2023-03-26T10:56:07.268Z,29.70
2023-03-26T10:58:49.786Z,29.90
2023-03-26T11:01:27.318Z,30.09
2023-03-26T11:03:55.909Z,29.54
2023-03-26T11:06:41.397Z,29.41
2023-03-26T11:09:22.626Z,29.37
2023-03-26T11:11:57.530Z,32.28
2023-03-26T11:14:35.219Z,29.43
2023-03-26T11:17:40.690Z,34.95
2023-03-26T11:20:07.670Z,32.17
2023-03-26T11:22:46.885Z,30.76
2023-03-26T11:25:46.413Z,35.14
2023-03-26T11:28:28.692Z,31.44
2023-03-26T11:31:04.571Z,29.47
2023-03-26T11:33:37.728Z,31.26
2023-03-26T11:36:17.816Z,32.60
2023-03-26T11:38:47.512Z,30.85
2023-03-26T11:41:22.733Z,31.14
2023-03-26T11:43:55.429Z,30.33
2023-03-26T11:46:26.660Z,32.36
2023-03-26T11:48:58.184Z,29.96
2023-03-26T11:51:29.385Z,29.97
2023-03-26T11:53:57.775Z,30.55
2023-03-26T11:56:30.067Z,30.83
2023-03-26T11:59:01.520Z,29.81
2023-03-26T12:01:44.237Z,29.77
2023-03-26T12:04:13.883Z,29.18
2023-03-26T12:06:52.603Z,31.00
2023-03-26T12:09:20.285Z,28.45
2023-03-26T12:11:49.427Z,28.73
2023-03-26T12:14:19.266Z,27.98
2023-03-26T12:17:03.829Z,27.53
2023-03-26T12:19:40.114Z,27.63
2023-03-26T12:22:29.601Z,27.09
2023-03-26T12:25:18.099Z,27.44
2023-03-26T12:27:48.466Z,27.27
2023-03-26T12:30:22.433Z,27.55
2023-03-26T12:32:55.748Z,27.83
2023-03-26T12:35:27.386Z,27.16
2023-03-26T12:37:56.070Z,27.64
2023-03-26T12:40:35.963Z,26.99
2023-03-26T12:44:46.501Z,27.54
2023-03-26T12:47:45.807Z,27.55
2023-03-26T12:48:45.810Z,27.32
2023-03-26T12:51:26.321Z,27.53
2023-03-26T12:54:13.623Z,27.08
2023-03-26T12:56:48.001Z,27.29
2023-03-26T12:59:28.724Z,27.87
2023-03-26T13:02:07.141Z,27.63
2023-03-26T13:05:06.048Z,27.11
2023-03-26T13:07:49.583Z,27.45
2023-03-26T13:10:49.437Z,27.02
2023-03-26T13:13:46.834Z,26.97
2023-03-26T13:16:24.008Z,27.39
2023-03-26T13:18:55.814Z,26.75
2023-03-26T13:21:36.991Z,26.89
2023-03-26T13:24:13.690Z,26.69
2023-03-26T13:27:00.616Z,26.33
2023-03-26T13:29:34.600Z,26.91
2023-03-26T13:32:07.563Z,26.71
2023-03-26T13:34:42.872Z,26.52
2023-03-26T13:37:17.450Z,26.35
2023-03-26T13:39:58.355Z,26.73
2023-03-26T13:42:38.591Z,27.01
2023-03-26T13:45:20.289Z,26.56
2023-03-26T13:47:51.043Z,26.08
2023-03-26T13:50:25.055Z,26.21
2023-03-26T13:52:59.432Z,26.17
2023-03-26T13:55:30.673Z,26.43
2023-03-26T13:58:04.888Z,26.54
2023-03-26T14:00:49.812Z,26.86
2023-03-26T14:03:24.452Z,27.12
2023-03-26T14:05:55.520Z,27.34
2023-03-26T14:08:32.726Z,27.32
2023-03-26T14:11:10.754Z,26.62
2023-03-26T14:13:46.177Z,27.24
2023-03-26T14:16:18.113Z,26.77
2023-03-26T14:18:52.338Z,26.93
2023-03-26T14:21:34.327Z,26.83
2023-03-26T14:24:24.467Z,26.85
2023-03-26T14:27:08.116Z,26.72
2023-03-26T14:29:56.625Z,26.91
2023-03-26T14:32:50.967Z,26.26
2023-03-26T14:35:35.166Z,26.45
2023-03-26T14:38:34.554Z,26.65
2023-03-26T14:41:17.984Z,26.49
2023-03-26T14:44:18.713Z,26.76
2023-03-26T14:46:59.307Z,26.31
2023-03-26T14:49:40.726Z,26.90
2023-03-26T14:52:13.764Z,26.95
2023-03-26T14:54:44.264Z,27.21
2023-03-26T14:57:58.457Z,27.07
2023-03-26T15:00:44.644Z,27.00
2023-03-26T15:03:51.104Z,27.04
2023-03-26T15:06:58.460Z,26.98
2023-03-26T15:10:16.860Z,27.32
2023-03-26T15:13:01.765Z,27.34
2023-03-26T15:15:59.376Z,27.97
2023-03-26T15:18:47.703Z,28.14
2023-03-26T15:21:27.930Z,28.48
2023-03-26T15:24:31.500Z,28.45
2023-03-26T15:27:32.498Z,28.31
2023-03-26T15:30:32.972Z,28.35
2023-03-26T15:33:38.503Z,28.44
2023-03-26T15:36:28.229Z,28.46
2023-03-26T15:39:28.213Z,28.27
2023-03-26T15:42:03.975Z,28.58
2023-03-26T15:44:53.203Z,29.17
2023-03-26T15:47:37.963Z,29.90
2023-03-26T15:50:27.014Z,30.33
2023-03-26T15:53:02.798Z,30.78
2023-03-26T15:55:36.654Z,30.91
2023-03-26T15:58:16.481Z,31.08
2023-03-26T16:00:55.464Z,31.18
2023-03-26T16:03:34.365Z,31.52
2023-03-26T16:06:31.051Z,31.42
2023-03-26T16:09:11.579Z,32.01
2023-03-26T16:11:53.745Z,32.22
2023-03-26T16:14:23.906Z,32.50
2023-03-26T16:16:54.954Z,32.42
2023-03-26T16:19:46.024Z,32.64
2023-03-26T16:22:42.882Z,32.74
2023-03-26T16:25:27.249Z,32.54
2023-03-26T16:28:29.940Z,32.53
2023-03-26T16:31:37.508Z,32.78
2023-03-26T16:34:26.182Z,32.89
2023-03-26T16:36:54.345Z,33.31
2023-03-26T16:39:25.096Z,33.78
2023-03-26T16:42:06.248Z,34.21
2023-03-26T16:44:43.936Z,34.76
2023-03-26T16:47:21.990Z,34.80
2023-03-26T16:50:09.600Z,34.88
2023-03-26T16:52:45.252Z,35.10
2023-03-26T16:55:20.242Z,35.24
2023-03-26T16:57:56.273Z,35.37
2023-03-26T17:00:38.187Z,35.83
2023-03-26T17:03:28.269Z,35.95
2023-03-26T17:06:07.685Z,35.99
2023-03-26T17:08:44.677Z,36.13
2023-03-26T17:11:22.888Z,36.35
2023-03-26T17:14:03.820Z,36.67
2023-03-26T17:16:35.919Z,37.16
2023-03-26T17:19:12.257Z,37.38
2023-03-26T17:21:50.712Z,37.77
2023-03-26T17:24:27.500Z,37.83
2023-03-26T17:27:03.046Z,38.01
2023-03-26T17:29:47.744Z,38.21
2023-03-26T17:32:15.718Z,38.19
2023-03-26T17:34:54.824Z,38.36
2023-03-26T17:37:37.166Z,38.41
2023-03-26T17:40:47.989Z,38.61
2023-03-26T17:43:42.920Z,38.61
2023-03-26T17:46:23.360Z,38.74
2023-03-26T17:48:58.175Z,39.22
2023-03-26T17:51:43.083Z,39.35
2023-03-26T17:54:22.275Z,39.51
2023-03-26T17:56:52.477Z,39.41
2023-03-26T17:59:24.879Z,39.48
2023-03-26T18:01:57.578Z,39.29
2023-03-26T18:04:31.201Z,39.56
2023-03-26T18:07:23.093Z,39.41
2023-03-26T18:10:09.460Z,39.64
2023-03-26T18:12:51.789Z,39.46
2023-03-26T18:15:33.955Z,39.45
2023-03-26T18:18:10.697Z,39.75
2023-03-26T18:20:38.494Z,39.73
2023-03-26T18:23:20.205Z,39.94
2023-03-26T18:25:52.157Z,39.57
2023-03-26T18:28:19.118Z,39.97
2023-03-26T18:30:51.108Z,39.75
2023-03-26T18:33:18.221Z,39.89
2023-03-26T18:35:49.732Z,40.19
2023-03-26T18:38:35.688Z,40.24
2023-03-26T18:41:21.447Z,40.85
2023-03-26T18:43:48.630Z,40.89
2023-03-26T18:46:17.398Z,40.92
2023-03-26T18:48:46.177Z,41.13
2023-03-26T18:51:15.933Z,40.91
2023-03-26T18:53:50.172Z,40.97
2023-03-26T18:56:28.544Z,41.26
2023-03-26T18:58:58.166Z,41.53
2023-03-26T19:01:31.812Z,41.69
2023-03-26T19:04:02.224Z,41.46
2023-03-26T19:06:31.099Z,41.66
2023-03-26T19:08:58.601Z,41.43
2023-03-26T19:11:27.570Z,41.46
2023-03-26T19:14:06.724Z,41.66
2023-03-26T19:16:37.213Z,41.69
2023-03-26T19:19:07.574Z,42.04
2023-03-26T19:21:36.211Z,41.99
2023-03-26T19:24:06.816Z,41.86
2023-03-26T19:26:36.486Z,41.70
2023-03-26T19:29:04.406Z,41.57
2023-03-26T19:31:34.912Z,41.53
2023-03-26T19:34:19.614Z,41.65
2023-03-26T19:36:58.133Z,41.58
2023-03-26T19:39:36.728Z,41.54
2023-03-26T19:42:07.637Z,41.14
2023-03-26T19:44:39.554Z,41.31
2023-03-26T19:47:15.880Z,41.25
2023-03-26T19:49:51.299Z,40.65
2023-03-26T19:52:23.466Z,40.55
2023-03-26T19:55:00.074Z,40.87
2023-03-26T19:57:29.330Z,40.31
2023-03-26T19:59:56.814Z,40.33
2023-03-26T20:02:24.541Z,40.11
2023-03-26T20:04:53.198Z,40.15
2023-03-26T20:07:22.171Z,40.24
2023-03-26T20:10:05.601Z,39.86
2023-03-26T20:12:34.509Z,40.20
2023-03-26T20:15:02.154Z,39.66
2023-03-26T20:17:30.928Z,39.78
2023-03-26T20:19:59.648Z,40.09
2023-03-26T20:22:27.432Z,39.71
2023-03-26T20:24:54.710Z,40.18
2023-03-26T20:27:22.510Z,39.62
2023-03-26T20:29:49.673Z,39.77
2023-03-26T20:32:19.877Z,39.56
2023-03-26T20:34:49.855Z,39.68
2023-03-26T20:37:18.720Z,39.64
2023-03-26T20:39:46.362Z,39.68
2023-03-26T20:42:16.229Z,39.90
2023-03-26T20:44:43.699Z,40.13
2023-03-26T20:47:11.460Z,40.13
2023-03-26T20:49:38.907Z,40.11
2023-03-26T20:52:06.435Z,40.27
2023-03-26T20:54:35.717Z,40.06
2023-03-26T20:57:03.075Z,40.52
2023-03-26T20:59:30.238Z,40.19
2023-03-26T21:01:59.410Z,40.79
2023-03-26T21:04:27.702Z,40.51
2023-03-26T21:07:00.336Z,40.56
2023-03-26T21:09:36.116Z,41.05
2023-03-26T21:12:08.117Z,40.99
2023-03-26T21:14:41.056Z,41.62
2023-03-26T21:17:13.798Z,41.40
2023-03-26T21:19:41.415Z,41.59
2023-03-26T21:22:19.899Z,41.73
2023-03-26T21:25:10.426Z,42.05
2023-03-26T21:27:44.571Z,41.61
2023-03-26T21:30:17.585Z,41.45
2023-03-26T21:32:46.176Z,41.97
2023-03-26T21:35:15.227Z,41.85
2023-03-26T21:37:45.714Z,41.77
2023-03-26T21:40:19.291Z,42.10
2023-03-26T21:42:48.652Z,42.10
2023-03-26T21:45:16.746Z,42.12
2023-03-26T21:47:45.712Z,42.40
2023-03-26T21:50:15.616Z,42.10
2023-03-26T21:52:49.230Z,42.07
2023-03-26T21:55:20.237Z,42.35
2023-03-26T21:58:15.360Z,42.10
2023-03-26T22:00:50.641Z,42.64
2023-03-26T22:03:25.310Z,42.83
2023-03-26T22:05:58.782Z,43.18
2023-03-26T22:08:29.804Z,43.39
2023-03-26T22:10:58.384Z,43.42
2023-03-26T22:13:25.809Z,44.00
2023-03-26T22:15:52.837Z,44.25
2023-03-26T22:18:21.639Z,44.46
2023-03-26T22:20:49.206Z,44.75
2023-03-26T22:23:16.874Z,45.13
2023-03-26T22:25:44.115Z,45.59
2023-03-26T22:28:12.929Z,45.30
2023-03-26T22:30:40.077Z,45.29
2023-03-26T22:33:11.901Z,45.40
2023-03-26T22:35:41.366Z,45.51
2023-03-26T22:38:09.761Z,45.58
2023-03-26T22:40:36.743Z,45.64
2023-03-26T22:43:04.204Z,45.49
2023-03-26T22:45:32.769Z,45.64
2023-03-26T22:48:03.713Z,45.88
2023-03-26T22:50:31.759Z,45.99
2023-03-26T22:52:59.269Z,46.22
2023-03-26T22:55:28.763Z,46.29
2023-03-26T22:57:57.526Z,46.69
2023-03-26T23:00:26.388Z,46.81
2023-03-26T23:03:00.258Z,46.79
2023-03-26T23:05:28.632Z,46.77
2023-03-26T23:07:57.108Z,46.44
2023-03-26T23:10:24.190Z,46.52
2023-03-26T23:12:52.261Z,46.63
2023-03-26T23:15:20.662Z,46.71
2023-03-26T23:17:54.520Z,46.77
2023-03-26T23:20:23.436Z,46.59
2023-03-26T23:22:51.358Z,46.07
2023-03-26T23:25:18.444Z,46.44
2023-03-26T23:27:45.738Z,46.38
2023-03-26T23:30:13.599Z,46.08
2023-03-26T23:32:41.458Z,46.49
2023-03-26T23:35:09.223Z,46.29
2023-03-26T23:37:37.988Z,46.16
2023-03-26T23:40:10.013Z,46.49
2023-03-26T23:42:38.092Z,46.35
2023-03-26T23:45:05.846Z,46.30
2023-03-26T23:47:34.960Z,46.20
2023-03-26T23:50:02.564Z,46.11
2023-03-26T23:52:30.286Z,46.04
2023-03-26T23:55:02.073Z,45.87
2023-03-26T23:57:30.553Z,45.96
2023-03-26T23:59:58.404Z,46.05
